createdAt,value
2018-06-20T00:01:23.485Z,9.27
2018-06-20T00:03:52.380Z,5.50
2018-06-20T00:06:21.291Z,6.13
2018-06-20T00:08:54.066Z,7.20
2018-06-20T00:11:24.708Z,5.83
2018-06-20T00:13:54.611Z,5.67
2018-06-20T00:16:23.500Z,6.93
2018-06-20T00:18:52.359Z,7.47
2018-06-20T00:21:21.216Z,8.00
2018-06-20T00:23:50.106Z,10.85
2018-06-20T00:26:19.104Z,8.93
2018-06-20T00:28:48.025Z,6.77
2018-06-20T00:31:16.910Z,7.30
2018-06-20T00:33:45.752Z,8.00
2018-06-20T00:36:14.578Z,7.03
2018-06-20T00:38:43.434Z,8.00
2018-06-20T00:41:12.308Z,5.93
2018-06-20T00:43:41.188Z,6.27
2018-06-20T00:46:10.072Z,7.10
2018-06-20T00:48:38.979Z,8.03
2018-06-20T00:51:08.173Z,7.50
2018-06-20T00:53:37.102Z,9.05
2018-06-20T00:56:17.025Z,5.80
2018-06-20T00:58:45.949Z,10.33
2018-06-20T01:01:14.989Z,9.10
2018-06-20T01:03:44.058Z,9.20
2018-06-20T01:06:13.313Z,6.50
2018-06-20T01:08:42.458Z,11.33
2018-06-20T01:11:11.900Z,6.70
2018-06-20T01:13:40.936Z,8.37
2018-06-20T01:16:09.969Z,7.97
2018-06-20T01:18:38.848Z,5.23
2018-06-20T01:21:07.766Z,7.73
2018-06-20T01:23:36.709Z,6.10
2018-06-20T01:26:07.492Z,6.40
2018-06-20T01:28:36.480Z,6.13
2018-06-20T01:31:05.354Z,8.90
2018-06-20T01:33:34.278Z,6.33
2018-06-20T01:36:04.050Z,6.53
2018-06-20T01:38:32.908Z,7.27
2018-06-20T01:41:01.803Z,6.73
2018-06-20T01:43:30.652Z,6.92
2018-06-20T01:45:59.562Z,6.06
2018-06-20T01:48:28.392Z,8.35
2018-06-20T01:50:58.151Z,6.42
2018-06-20T01:53:27.007Z,6.17
2018-06-20T01:55:55.858Z,9.50
2018-06-20T01:58:24.917Z,7.27
2018-06-20T02:00:53.760Z,8.70
2018-06-20T02:03:22.664Z,7.73
2018-06-20T02:05:51.542Z,8.85
2018-06-20T02:08:20.437Z,9.53
2018-06-20T02:10:49.304Z,7.37
2018-06-20T02:13:18.201Z,8.03
2018-06-20T02:15:47.072Z,9.68
2018-06-20T02:18:15.940Z,9.87
2018-06-20T02:20:44.787Z,13.33
2018-06-20T02:23:13.672Z,7.03
2018-06-20T02:25:42.544Z,7.20
2018-06-20T02:28:11.799Z,8.45
2018-06-20T02:30:40.713Z,9.10
2018-06-20T02:33:09.612Z,7.70
2018-06-20T02:35:38.466Z,9.13
2018-06-20T02:38:07.312Z,8.03
2018-06-20T02:40:36.193Z,10.20
2018-06-20T02:43:05.253Z,6.53
2018-06-20T02:45:34.141Z,12.27
2018-06-20T02:48:02.993Z,8.10
2018-06-20T02:50:31.910Z,7.65
2018-06-20T02:53:00.814Z,11.50
2018-06-20T02:55:29.736Z,9.60
2018-06-20T02:57:58.648Z,9.53
2018-06-20T03:00:27.565Z,7.22
2018-06-20T03:02:56.438Z,6.60
2018-06-20T03:05:25.281Z,10.23
2018-06-20T03:07:54.125Z,6.67
2018-06-20T03:10:23.099Z,8.10
2018-06-20T03:12:58.578Z,7.65
2018-06-20T03:15:27.438Z,9.95
2018-06-20T03:17:56.287Z,8.90
2018-06-20T03:20:25.104Z,8.10
2018-06-20T03:22:53.969Z,8.18
2018-06-20T03:25:22.806Z,10.13
2018-06-20T03:27:51.619Z,6.33
2018-06-20T03:30:20.457Z,6.30
2018-06-20T03:32:49.342Z,6.03
2018-06-20T03:35:18.193Z,6.20
2018-06-20T03:37:47.073Z,9.90
2018-06-20T03:40:15.898Z,5.90
2018-06-20T03:42:44.802Z,9.63
2018-06-20T03:45:13.705Z,9.47
2018-06-20T03:47:42.565Z,6.43
2018-06-20T03:50:11.388Z,6.23
2018-06-20T03:52:40.260Z,5.73
2018-06-20T03:55:09.118Z,6.30
2018-06-20T03:57:38.118Z,6.73
2018-06-20T04:00:06.987Z,5.80
2018-06-20T04:02:35.940Z,8.40
2018-06-20T04:05:04.856Z,9.38
2018-06-20T04:07:33.724Z,7.63
2018-06-20T04:10:02.569Z,5.87
2018-06-20T04:12:31.477Z,6.13
2018-06-20T04:15:00.372Z,5.77
2018-06-20T04:17:29.172Z,6.27
2018-06-20T04:19:58.071Z,9.63
2018-06-20T04:22:26.905Z,5.63
2018-06-20T04:24:56.992Z,8.78
2018-06-20T04:27:25.985Z,6.17
2018-06-20T04:29:55.247Z,5.87
2018-06-20T04:32:24.836Z,7.00
2018-06-20T04:34:57.554Z,6.63
2018-06-20T04:37:26.469Z,10.23
2018-06-20T04:39:55.740Z,5.23
2018-06-20T04:42:26.124Z,4.42
2018-06-20T04:44:56.403Z,6.03
2018-06-20T04:47:25.233Z,4.75
2018-06-20T04:49:54.969Z,5.28
2018-06-20T04:52:24.234Z,5.47
2018-06-20T04:54:53.160Z,4.75
2018-06-20T04:57:22.025Z,4.77
2018-06-20T04:59:50.955Z,4.73
2018-06-20T05:02:20.025Z,4.97
2018-06-20T05:04:48.917Z,4.15
2018-06-20T05:07:20.140Z,4.60
2018-06-20T05:09:49.129Z,8.63
2018-06-20T05:12:17.996Z,3.53
2018-06-20T05:14:47.607Z,3.77
2018-06-20T05:17:16.481Z,4.10
2018-06-20T05:19:45.324Z,5.40
2018-06-20T05:22:14.559Z,4.50
2018-06-20T05:24:46.209Z,4.53
2018-06-20T05:27:15.065Z,6.62
2018-06-20T05:29:45.805Z,3.87
2018-06-20T05:32:14.623Z,3.80
2018-06-20T05:34:43.462Z,3.60
2018-06-20T05:37:13.169Z,4.33
2018-06-20T05:39:42.425Z,5.80
2018-06-20T05:42:12.608Z,4.63
2018-06-20T05:44:41.456Z,4.37
2018-06-20T05:47:12.436Z,4.57
2018-06-20T05:49:42.126Z,4.40
2018-06-20T05:52:10.973Z,4.13
2018-06-20T05:54:40.025Z,4.33
2018-06-20T05:57:09.018Z,4.53
2018-06-20T05:59:37.850Z,5.43
2018-06-20T06:02:09.474Z,5.10
2018-06-20T06:04:38.285Z,5.40
2018-06-20T06:07:08.294Z,5.13
2018-06-20T06:09:37.769Z,6.23
2018-06-20T06:12:07.552Z,5.43
2018-06-20T06:14:36.432Z,4.60
2018-06-20T06:17:05.443Z,5.67
2018-06-20T06:19:34.244Z,5.90
2018-06-20T06:22:03.235Z,5.53
2018-06-20T06:24:32.209Z,5.30
2018-06-20T06:27:01.089Z,9.43
2018-06-20T06:29:30.160Z,4.97
2018-06-20T06:31:58.964Z,4.77
2018-06-20T06:34:27.839Z,4.97
2018-06-20T06:36:56.729Z,6.80
2018-06-20T06:39:25.614Z,6.77
2018-06-20T06:41:54.484Z,6.13
2018-06-20T06:44:23.346Z,5.53
2018-06-20T06:46:52.234Z,8.03
2018-06-20T06:49:21.028Z,7.17
2018-06-20T06:51:49.876Z,9.20
2018-06-20T06:54:18.729Z,9.40
2018-06-20T06:56:47.591Z,9.93
2018-06-20T06:59:16.432Z,9.50
2018-06-20T07:01:45.268Z,9.00
2018-06-20T07:04:14.163Z,9.97
2018-06-20T07:06:43.373Z,9.03
2018-06-20T07:09:12.378Z,9.50
2018-06-20T07:11:41.226Z,9.27
2018-06-20T07:14:10.121Z,9.67
2018-06-20T07:16:38.979Z,10.60
2018-06-20T07:19:07.888Z,9.57
2018-06-20T07:21:36.817Z,11.03
2018-06-20T07:24:05.713Z,14.17
2018-06-20T07:26:34.616Z,12.40
2018-06-20T07:29:03.553Z,11.87
2018-06-20T07:31:32.513Z,12.27
2018-06-20T07:34:01.373Z,12.57
2018-06-20T07:36:30.339Z,14.47
2018-06-20T07:38:59.229Z,14.53
2018-06-20T07:41:28.275Z,16.20
2018-06-20T07:43:57.153Z,13.67
2018-06-20T07:46:26.614Z,13.90
2018-06-20T07:48:55.545Z,14.97
2018-06-20T07:51:24.459Z,16.60
2018-06-20T07:53:53.292Z,15.27
2018-06-20T07:56:22.285Z,16.50
2018-06-20T07:58:57.263Z,16.07
2018-06-20T08:01:42.458Z,17.40
2018-06-20T08:04:16.511Z,16.80
2018-06-20T08:06:51.160Z,15.23
2018-06-20T08:09:25.206Z,13.90
2018-06-20T08:11:59.320Z,14.60
2018-06-20T08:14:33.362Z,14.07
2018-06-20T08:17:04.946Z,12.30
2018-06-20T08:19:39.052Z,11.27
2018-06-20T08:22:07.904Z,12.07
2018-06-20T08:24:38.297Z,13.47
2018-06-20T08:27:07.131Z,11.43
2018-06-20T08:29:36.024Z,11.50
2018-06-20T08:32:04.874Z,11.20
2018-06-20T08:34:33.765Z,13.98
2018-06-20T08:37:02.621Z,11.83
2018-06-20T08:39:31.488Z,11.00
2018-06-20T08:42:00.359Z,12.40
2018-06-20T08:44:29.809Z,13.37
2018-06-20T08:46:58.690Z,10.83
2018-06-20T08:49:27.576Z,13.33
2018-06-20T08:51:56.461Z,13.67
2018-06-20T08:54:25.336Z,14.10
2018-06-20T08:56:54.421Z,12.03
2018-06-20T08:59:23.291Z,12.17
2018-06-20T09:01:52.305Z,11.30
2018-06-20T09:04:26.535Z,11.97
2018-06-20T09:07:00.718Z,10.40
2018-06-20T09:09:34.759Z,11.77
2018-06-20T09:12:08.741Z,12.03
2018-06-20T09:14:42.796Z,11.03
2018-06-20T09:17:16.826Z,11.90
2018-06-20T09:19:47.001Z,10.33
2018-06-20T09:22:17.918Z,11.33
2018-06-20T09:24:48.114Z,9.43
2018-06-20T09:27:17.097Z,12.50
2018-06-20T09:29:45.924Z,11.20
2018-06-20T09:32:15.729Z,10.30
2018-06-20T09:34:45.131Z,11.57
2018-06-20T09:37:13.952Z,9.97
2018-06-20T09:39:42.854Z,11.30
2018-06-20T09:42:11.698Z,15.65
2018-06-20T09:44:40.543Z,11.30
2018-06-20T09:47:09.407Z,11.20
2018-06-20T09:49:39.169Z,13.00
2018-06-20T09:52:08.067Z,10.93
2018-06-20T09:54:36.930Z,11.03
2018-06-20T09:57:05.941Z,10.90
2018-06-20T09:59:39.956Z,11.20
2018-06-20T10:02:14.169Z,11.97
2018-06-20T10:05:50.107Z,12.83
2018-06-20T10:08:24.181Z,12.60
2018-06-20T10:10:58.165Z,12.30
2018-06-20T10:13:27.634Z,13.87
2018-06-20T10:15:56.521Z,19.93
2018-06-20T10:18:25.378Z,13.23
2018-06-20T10:20:54.286Z,11.60
2018-06-20T10:23:23.164Z,13.30
2018-06-20T10:25:52.018Z,12.37
2018-06-20T10:28:21.001Z,13.85
2018-06-20T10:30:49.868Z,12.70
2018-06-20T10:33:18.837Z,13.37
2018-06-20T10:35:47.761Z,14.40
2018-06-20T10:38:16.677Z,13.93
2018-06-20T10:41:06.199Z,12.63
2018-06-20T10:43:35.180Z,13.97
2018-06-20T10:46:09.366Z,12.20
2018-06-20T10:48:38.190Z,14.10
2018-06-20T10:51:07.092Z,13.17
2018-06-20T10:53:35.996Z,17.70
2018-06-20T10:56:05.142Z,13.67
2018-06-20T10:58:39.236Z,13.60
2018-06-20T11:01:13.447Z,18.37
2018-06-20T11:03:47.556Z,14.63
2018-06-20T11:07:24.383Z,12.20
2018-06-20T11:09:58.445Z,14.60
2018-06-20T11:12:32.457Z,12.37
2018-06-20T11:15:01.369Z,14.23
2018-06-20T11:17:30.268Z,14.43
2018-06-20T11:20:03.237Z,14.87
2018-06-20T11:22:32.134Z,15.60
2018-06-20T11:25:01.000Z,16.50
2018-06-20T11:27:29.964Z,17.03
2018-06-20T11:29:58.848Z,15.50
2018-06-20T11:32:27.817Z,15.25
2018-06-20T11:34:56.762Z,16.80
2018-06-20T11:37:25.638Z,15.53
2018-06-20T11:39:54.555Z,15.43
2018-06-20T11:42:23.432Z,16.57
2018-06-20T11:44:52.360Z,13.93
2018-06-20T11:47:26.417Z,13.83
2018-06-20T11:49:55.452Z,17.00
2018-06-20T11:52:29.341Z,14.43
2018-06-20T11:55:03.487Z,18.23
2018-06-20T11:57:32.447Z,12.37
2018-06-20T12:00:06.463Z,14.90
2018-06-20T12:02:40.534Z,15.10
2018-06-20T12:05:14.624Z,11.50
2018-06-20T12:07:48.611Z,15.53
2018-06-20T12:10:22.776Z,14.38
2018-06-20T12:12:56.815Z,16.73
2018-06-20T12:15:30.737Z,16.40
2018-06-20T12:18:04.708Z,13.90
2018-06-20T12:20:38.749Z,14.00
2018-06-20T12:23:12.734Z,13.87
2018-06-20T12:25:47.266Z,15.80
2018-06-20T12:28:21.332Z,17.20
2018-06-20T12:30:55.426Z,17.93
2018-06-20T12:33:29.564Z,15.50
2018-06-20T12:36:03.610Z,13.47
2018-06-20T12:38:37.715Z,13.63
2018-06-20T12:41:11.881Z,15.53
2018-06-20T12:43:46.007Z,15.90
2018-06-20T12:46:23.564Z,18.17
2018-06-20T12:48:52.584Z,16.93
2018-06-20T12:51:21.526Z,17.60
2018-06-20T12:53:50.472Z,19.33
2018-06-20T12:56:19.374Z,17.40
2018-06-20T12:58:48.435Z,18.60
2018-06-20T13:01:17.457Z,19.10
2018-06-20T13:03:46.525Z,19.23
2018-06-20T13:06:15.594Z,18.17
2018-06-20T13:08:44.576Z,16.47
2018-06-20T13:11:13.448Z,15.47
2018-06-20T13:13:42.398Z,15.53
2018-06-20T13:16:11.350Z,15.00
2018-06-20T13:18:40.291Z,15.90
2018-06-20T13:21:09.193Z,15.20
2018-06-20T13:23:38.093Z,15.77
2018-06-20T13:26:07.019Z,15.20
2018-06-20T13:28:36.023Z,14.23
2018-06-20T13:31:10.005Z,13.07
2018-06-20T13:33:44.104Z,14.17
2018-06-20T13:36:18.124Z,16.50
2018-06-20T13:38:52.143Z,14.53
2018-06-20T13:41:28.410Z,14.70
2018-06-20T13:44:06.251Z,13.10
2018-06-20T13:46:40.216Z,13.03
2018-06-20T13:49:09.133Z,14.20
2018-06-20T13:51:38.003Z,13.27
2018-06-20T13:54:07.191Z,10.80
2018-06-20T13:56:36.078Z,12.27
2018-06-20T13:59:05.038Z,11.30
2018-06-20T14:01:33.901Z,11.53
2018-06-20T14:04:02.900Z,13.17
2018-06-20T14:06:31.842Z,10.58
2018-06-20T14:09:00.733Z,10.00
2018-06-20T14:11:29.577Z,8.83
2018-06-20T14:13:58.421Z,9.20
2018-06-20T14:16:27.298Z,8.08
2018-06-20T14:18:56.315Z,8.03
2018-06-20T14:21:30.389Z,6.00
2018-06-20T14:23:59.252Z,6.60
2018-06-20T14:26:28.127Z,6.13
2018-06-20T14:28:57.114Z,7.40
2018-06-20T14:31:31.295Z,6.97
2018-06-20T14:34:05.395Z,7.67
2018-06-20T14:36:39.477Z,6.50
2018-06-20T14:39:14.956Z,7.23
2018-06-20T14:41:49.172Z,6.00
2018-06-20T14:44:18.107Z,5.73
2018-06-20T14:46:47.052Z,4.50
2018-06-20T14:49:16.015Z,4.53
2018-06-20T14:51:44.893Z,6.00
2018-06-20T14:54:13.832Z,4.90
2018-06-20T14:56:42.780Z,5.40
2018-06-20T14:59:11.716Z,4.73
2018-06-20T15:01:40.700Z,5.73
2018-06-20T15:04:09.656Z,5.00
2018-06-20T15:06:38.600Z,6.53
2018-06-20T15:09:08.713Z,4.95
2018-06-20T15:11:38.056Z,5.70
2018-06-20T15:14:07.206Z,5.47
2018-06-20T15:16:41.579Z,5.20
2018-06-20T15:19:10.487Z,5.87
2018-06-20T15:21:39.406Z,4.87
2018-06-20T15:24:08.292Z,5.43
2018-06-20T15:26:42.276Z,5.03
2018-06-20T15:29:16.410Z,6.47
2018-06-20T15:31:50.630Z,5.70
2018-06-20T15:34:24.776Z,5.93
2018-06-20T15:36:58.755Z,6.17
2018-06-20T15:39:27.688Z,6.33
2018-06-20T15:41:56.731Z,5.40
2018-06-20T15:44:25.725Z,6.00
2018-06-20T15:46:54.580Z,4.93
2018-06-20T15:49:23.507Z,5.93
2018-06-20T15:51:52.426Z,4.93
2018-06-20T15:54:21.377Z,5.57
2018-06-20T15:56:50.310Z,5.40
2018-06-20T15:59:19.168Z,6.17
2018-06-20T16:01:48.126Z,5.60
2018-06-20T16:04:17.023Z,5.30
2018-06-20T16:06:45.916Z,5.60
2018-06-20T16:09:23.637Z,4.97
2018-06-20T16:11:52.523Z,5.93
2018-06-20T16:14:21.512Z,4.93
2018-06-20T16:16:50.529Z,4.77
2018-06-20T16:19:25.392Z,4.80
2018-06-20T16:22:59.357Z,4.53
2018-06-20T16:25:33.414Z,6.47
2018-06-20T16:29:10.685Z,5.17
2018-06-20T16:31:40.165Z,4.90
2018-06-20T16:34:09.156Z,5.65
2018-06-20T16:36:39.339Z,5.07
2018-06-20T16:39:08.609Z,5.00
2018-06-20T16:41:38.559Z,5.33
2018-06-20T16:44:07.558Z,5.20
2018-06-20T16:46:36.513Z,5.50
2018-06-20T16:49:05.552Z,7.93
2018-06-20T16:51:34.460Z,5.60
2018-06-20T16:54:03.668Z,5.33
2018-06-20T16:56:32.663Z,5.07
2018-06-20T16:59:01.530Z,4.90
2018-06-20T17:01:35.702Z,4.63
2018-06-20T17:04:04.757Z,5.30
2018-06-20T17:06:33.827Z,5.23
2018-06-20T17:09:03.127Z,4.90
2018-06-20T17:11:32.409Z,4.70
2018-06-20T17:14:06.716Z,5.07
2018-06-20T17:16:40.973Z,4.67
2018-06-20T17:19:15.201Z,4.53
2018-06-20T17:21:49.849Z,4.43
2018-06-20T17:24:24.576Z,4.10
2018-06-20T17:26:53.785Z,4.53
2018-06-20T17:29:30.529Z,4.67
2018-06-20T17:31:59.448Z,4.50
2018-06-20T17:34:28.381Z,5.20
2018-06-20T17:36:57.338Z,4.47
2018-06-20T17:39:26.440Z,18.23
2018-06-20T17:41:55.305Z,4.70
2018-06-20T17:44:24.235Z,4.80
2018-06-20T17:46:53.209Z,4.70
2018-06-20T17:49:22.177Z,4.50
2018-06-20T17:51:51.076Z,4.77
2018-06-20T17:54:20.035Z,4.73
2018-06-20T17:56:48.986Z,4.77
2018-06-20T17:59:17.890Z,5.20
2018-06-20T18:01:47.248Z,4.93
2018-06-20T18:04:21.484Z,6.13
2018-06-20T18:06:55.530Z,4.90
2018-06-20T18:09:38.960Z,5.00
2018-06-20T18:12:16.821Z,4.40
2018-06-20T18:17:00.816Z,4.83
2018-06-20T18:19:32.362Z,4.63
2018-06-20T18:22:01.379Z,5.03
2018-06-20T18:24:30.300Z,5.13
2018-06-20T18:26:59.251Z,5.13
2018-06-20T18:29:28.744Z,5.45
2018-06-20T18:31:57.654Z,5.00
2018-06-20T18:34:26.550Z,4.97
2018-06-20T18:36:55.470Z,4.47
2018-06-20T18:39:24.530Z,4.93
2018-06-20T18:41:54.424Z,4.70
2018-06-20T18:44:25.085Z,5.17
2018-06-20T18:46:53.964Z,5.30
2018-06-20T18:49:22.835Z,4.30
2018-06-20T18:52:00.773Z,6.13
2018-06-20T18:54:31.724Z,5.10
2018-06-20T18:57:00.847Z,5.03
2018-06-20T18:59:35.031Z,5.80
2018-06-20T19:02:10.523Z,5.23
2018-06-20T19:04:46.985Z,5.63
2018-06-20T19:07:20.929Z,5.00
2018-06-20T19:09:50.209Z,5.00
2018-06-20T19:12:23.116Z,4.70
2018-06-20T19:14:52.474Z,5.77
2018-06-20T19:17:21.600Z,5.07
2018-06-20T19:19:50.537Z,5.43
2018-06-20T19:22:19.552Z,6.90
2018-06-20T19:24:48.491Z,8.63
2018-06-20T19:27:17.487Z,8.40
2018-06-20T19:29:46.482Z,11.83
2018-06-20T19:32:15.477Z,11.90
2018-06-20T19:34:44.423Z,12.20
2018-06-20T19:37:13.546Z,13.40
2018-06-20T19:39:47.662Z,14.37
2018-06-20T19:42:16.609Z,13.57
2018-06-20T19:44:45.576Z,16.17
2018-06-20T19:47:14.609Z,19.52
2018-06-20T19:49:43.500Z,21.85
2018-06-20T19:52:12.684Z,24.17
2018-06-20T19:54:41.852Z,26.60
2018-06-20T19:57:10.813Z,25.43
2018-06-20T19:59:39.807Z,26.87
2018-06-20T20:02:08.746Z,26.23
2018-06-20T20:04:37.653Z,26.83
2018-06-20T20:07:06.520Z,26.43
2018-06-20T20:09:35.491Z,24.20
2018-06-20T20:12:04.449Z,31.67
2018-06-20T20:14:33.375Z,24.33
2018-06-20T20:17:02.370Z,25.80
2018-06-20T20:19:31.451Z,24.90
2018-06-20T20:22:00.428Z,31.33
2018-06-20T20:24:29.723Z,26.13
2018-06-20T20:26:58.661Z,28.33
2018-06-20T20:29:27.502Z,27.93
2018-06-20T20:31:56.370Z,28.35
2018-06-20T20:34:25.211Z,26.50
2018-06-20T20:36:54.125Z,27.00
2018-06-20T20:39:23.192Z,27.50
2018-06-20T20:41:52.068Z,29.70
2018-06-20T20:44:20.995Z,32.65
2018-06-20T20:46:49.885Z,32.43
2018-06-20T20:49:18.921Z,28.90
2018-06-20T20:51:47.803Z,28.13
2018-06-20T20:54:16.698Z,28.80
2018-06-20T20:56:45.570Z,32.97
2018-06-20T20:59:14.474Z,34.93
2018-06-20T21:01:43.403Z,32.10
2018-06-20T21:04:12.277Z,31.67
2018-06-20T21:06:41.091Z,31.47
2018-06-20T21:09:11.478Z,29.32
2018-06-20T21:11:41.403Z,33.15
2018-06-20T21:14:10.368Z,33.58
2018-06-20T21:16:39.306Z,29.98
2018-06-20T21:19:08.219Z,29.97
2018-06-20T21:21:37.065Z,29.52
2018-06-20T21:24:06.022Z,28.47
2018-06-20T21:26:34.874Z,29.48
2018-06-20T21:29:03.806Z,26.30
2018-06-20T21:31:32.703Z,23.53
2018-06-20T21:34:01.592Z,24.00
2018-06-20T21:36:30.413Z,24.70
2018-06-20T21:38:59.340Z,26.93
2018-06-20T21:41:28.253Z,23.57
2018-06-20T21:43:57.121Z,23.77
2018-06-20T21:46:26.027Z,26.27
2018-06-20T21:48:54.949Z,27.70
2018-06-20T21:51:23.768Z,28.33
2018-06-20T21:53:52.634Z,24.10
2018-06-20T21:56:21.473Z,22.30
2018-06-20T21:58:50.482Z,21.30
2018-06-20T22:01:19.325Z,27.03
2018-06-20T22:03:48.204Z,23.60
2018-06-20T22:06:17.132Z,26.10
2018-06-20T22:08:46.122Z,20.57
2018-06-20T22:11:15.132Z,20.57
2018-06-20T22:13:44.037Z,21.00
2018-06-20T22:16:12.870Z,22.40
2018-06-20T22:18:41.750Z,24.50
2018-06-20T22:21:10.662Z,26.25
2018-06-20T22:23:39.572Z,22.70
2018-06-20T22:26:08.438Z,19.63
2018-06-20T22:28:37.278Z,23.93
2018-06-20T22:31:06.106Z,23.10
2018-06-20T22:33:34.997Z,26.23
2018-06-20T22:36:03.885Z,28.47
2018-06-20T22:38:32.789Z,20.73
2018-06-20T22:41:01.716Z,24.27
2018-06-20T22:43:30.583Z,23.97
2018-06-20T22:45:59.448Z,23.73
2018-06-20T22:48:28.362Z,21.82
2018-06-20T22:50:57.556Z,25.82
2018-06-20T22:53:26.454Z,23.10
2018-06-20T22:55:55.369Z,24.35
2018-06-20T22:58:24.242Z,20.80
2018-06-20T23:00:53.132Z,26.70
2018-06-20T23:03:22.009Z,24.07
2018-06-20T23:05:50.926Z,20.70
2018-06-20T23:08:19.893Z,26.52
2018-06-20T23:10:48.776Z,25.83
2018-06-20T23:13:17.662Z,24.97
2018-06-20T23:15:46.528Z,24.13
2018-06-20T23:18:15.400Z,25.17
2018-06-20T23:20:44.370Z,23.60
2018-06-20T23:23:13.200Z,23.90
2018-06-20T23:25:42.019Z,27.63
2018-06-20T23:28:11.372Z,24.57
2018-06-20T23:30:40.233Z,25.17
2018-06-20T23:33:09.093Z,26.67
2018-06-20T23:35:38.005Z,25.73
2018-06-20T23:38:07.825Z,30.02
2018-06-20T23:40:36.742Z,25.73
2018-06-20T23:43:05.652Z,27.20
2018-06-20T23:45:34.521Z,30.40
2018-06-20T23:48:03.424Z,27.60
2018-06-20T23:50:32.335Z,23.93
2018-06-20T23:53:01.218Z,28.53
2018-06-20T23:55:30.108Z,32.70
2018-06-20T23:57:58.978Z,24.87
